sensor_id;sensor_type;location;lat;lon;timestamp;P1;durP1;ratioP1;P2;durP2;ratioP2
22628;SDS011;11481;53.694;9.910;2023-07-02T00:02:16;5.25;;;2.38;;
22628;SDS011;11481;53.694;9.910;2023-07-02T00:04:48;7.72;;;2.67;;
22628;SDS011;11481;53.694;9.910;2023-07-02T00:07:15;5.20;;;2.58;;
22628;SDS011;11481;53.694;9.910;2023-07-02T00:09:41;5.68;;;2.20;;
22628;SDS011;11481;53.694;9.910;2023-07-02T00:12:08;6.07;;;2.40;;
22628;SDS011;11481;53.694;9.910;2023-07-02T00:14:35;3.60;;;2.20;;
22628;SDS011;11481;53.694;9.910;2023-07-02T00:17:02;4.47;;;2.60;;
22628;SDS011;11481;53.694;9.910;2023-07-02T00:19:30;6.55;;;2.83;;
22628;SDS011;11481;53.694;9.910;2023-07-02T00:21:57;7.03;;;2.72;;
22628;SDS011;11481;53.694;9.910;2023-07-02T00:24:24;4.88;;;2.40;;
22628;SDS011;11481;53.694;9.910;2023-07-02T00:26:51;5.13;;;2.53;;
22628;SDS011;11481;53.694;9.910;2023-07-02T00:29:17;5.35;;;2.50;;
22628;SDS011;11481;53.694;9.910;2023-07-02T00:31:44;7.30;;;2.30;;
22628;SDS011;11481;53.694;9.910;2023-07-02T00:34:11;4.65;;;3.05;;
22628;SDS011;11481;53.694;9.910;2023-07-02T00:36:37;6.05;;;2.65;;
22628;SDS011;11481;53.694;9.910;2023-07-02T00:39:04;5.03;;;2.40;;
22628;SDS011;11481;53.694;9.910;2023-07-02T00:41:31;7.57;;;2.75;;
22628;SDS011;11481;53.694;9.910;2023-07-02T00:43:57;5.38;;;2.65;;
22628;SDS011;11481;53.694;9.910;2023-07-02T00:46:24;6.15;;;3.22;;
22628;SDS011;11481;53.694;9.910;2023-07-02T00:48:53;5.93;;;2.95;;
22628;SDS011;11481;53.694;9.910;2023-07-02T00:51:21;6.03;;;2.85;;
22628;SDS011;11481;53.694;9.910;2023-07-02T00:53:51;7.60;;;3.05;;
22628;SDS011;11481;53.694;9.910;2023-07-02T00:56:19;4.07;;;2.47;;
22628;SDS011;11481;53.694;9.910;2023-07-02T00:58:46;7.25;;;3.03;;
22628;SDS011;11481;53.694;9.910;2023-07-02T01:01:23;5.20;;;2.67;;
22628;SDS011;11481;53.694;9.910;2023-07-02T01:03:52;6.60;;;2.60;;
22628;SDS011;11481;53.694;9.910;2023-07-02T01:06:23;5.45;;;2.60;;
22628;SDS011;11481;53.694;9.910;2023-07-02T01:08:53;5.40;;;2.80;;
22628;SDS011;11481;53.694;9.910;2023-07-02T01:11:22;5.55;;;2.65;;
22628;SDS011;11481;53.694;9.910;2023-07-02T01:13:53;6.95;;;2.90;;
22628;SDS011;11481;53.694;9.910;2023-07-02T01:16:24;6.00;;;3.10;;
22628;SDS011;11481;53.694;9.910;2023-07-02T01:18:51;5.85;;;2.92;;
22628;SDS011;11481;53.694;9.910;2023-07-02T01:21:21;6.97;;;3.03;;
22628;SDS011;11481;53.694;9.910;2023-07-02T01:23:50;5.97;;;3.13;;
22628;SDS011;11481;53.694;9.910;2023-07-02T01:26:17;7.30;;;3.15;;
22628;SDS011;11481;53.694;9.910;2023-07-02T01:28:44;8.38;;;3.35;;
22628;SDS011;11481;53.694;9.910;2023-07-02T01:31:11;6.25;;;2.58;;
22628;SDS011;11481;53.694;9.910;2023-07-02T01:33:38;9.40;;;3.67;;
22628;SDS011;11481;53.694;9.910;2023-07-02T01:36:05;6.95;;;3.00;;
22628;SDS011;11481;53.694;9.910;2023-07-02T01:38:32;13.05;;;3.22;;
22628;SDS011;11481;53.694;9.910;2023-07-02T01:40:59;6.20;;;2.65;;
22628;SDS011;11481;53.694;9.910;2023-07-02T01:43:25;6.35;;;3.20;;
22628;SDS011;11481;53.694;9.910;2023-07-02T01:45:52;5.85;;;3.30;;
22628;SDS011;11481;53.694;9.910;2023-07-02T01:48:19;7.88;;;3.13;;
22628;SDS011;11481;53.694;9.910;2023-07-02T01:50:45;4.20;;;2.67;;
22628;SDS011;11481;53.694;9.910;2023-07-02T01:53:12;9.35;;;2.95;;
22628;SDS011;11481;53.694;9.910;2023-07-02T01:55:39;7.53;;;3.20;;
22628;SDS011;11481;53.694;9.910;2023-07-02T01:58:06;7.88;;;3.60;;
22628;SDS011;11481;53.694;9.910;2023-07-02T02:00:33;6.78;;;3.53;;
22628;SDS011;11481;53.694;9.910;2023-07-02T02:03:00;8.65;;;3.33;;
22628;SDS011;11481;53.694;9.910;2023-07-02T02:05:26;6.93;;;2.95;;
22628;SDS011;11481;53.694;9.910;2023-07-02T02:07:53;5.00;;;3.25;;
22628;SDS011;11481;53.694;9.910;2023-07-02T02:10:20;8.60;;;3.03;;
22628;SDS011;11481;53.694;9.910;2023-07-02T02:12:46;8.18;;;3.72;;
22628;SDS011;11481;53.694;9.910;2023-07-02T02:15:13;7.80;;;3.10;;
22628;SDS011;11481;53.694;9.910;2023-07-02T02:17:40;5.97;;;3.25;;
22628;SDS011;11481;53.694;9.910;2023-07-02T02:20:07;7.82;;;3.63;;
22628;SDS011;11481;53.694;9.910;2023-07-02T02:22:35;8.02;;;3.65;;
22628;SDS011;11481;53.694;9.910;2023-07-02T02:25:02;5.93;;;3.33;;
22628;SDS011;11481;53.694;9.910;2023-07-02T02:27:30;9.77;;;4.20;;
22628;SDS011;11481;53.694;9.910;2023-07-02T02:29:56;5.70;;;3.00;;
22628;SDS011;11481;53.694;9.910;2023-07-02T02:32:23;8.43;;;3.72;;
22628;SDS011;11481;53.694;9.910;2023-07-02T02:34:50;5.75;;;3.35;;
22628;SDS011;11481;53.694;9.910;2023-07-02T02:37:16;5.88;;;3.47;;
22628;SDS011;11481;53.694;9.910;2023-07-02T02:39:44;9.07;;;3.63;;
22628;SDS011;11481;53.694;9.910;2023-07-02T02:42:11;8.40;;;3.50;;
22628;SDS011;11481;53.694;9.910;2023-07-02T02:44:38;12.02;;;3.65;;
22628;SDS011;11481;53.694;9.910;2023-07-02T02:47:04;9.00;;;3.28;;
22628;SDS011;11481;53.694;9.910;2023-07-02T02:49:31;5.15;;;2.88;;
22628;SDS011;11481;53.694;9.910;2023-07-02T02:51:58;6.05;;;3.30;;
22628;SDS011;11481;53.694;9.910;2023-07-02T02:54:24;7.97;;;3.90;;
22628;SDS011;11481;53.694;9.910;2023-07-02T02:56:51;7.47;;;3.25;;
22628;SDS011;11481;53.694;9.910;2023-07-02T02:59:18;6.78;;;3.35;;
22628;SDS011;11481;53.694;9.910;2023-07-02T03:01:44;7.40;;;3.33;;
22628;SDS011;11481;53.694;9.910;2023-07-02T03:04:12;6.00;;;3.60;;
22628;SDS011;11481;53.694;9.910;2023-07-02T03:06:39;11.35;;;3.55;;
22628;SDS011;11481;53.694;9.910;2023-07-02T03:09:06;7.97;;;3.70;;
22628;SDS011;11481;53.694;9.910;2023-07-02T03:11:32;6.30;;;3.70;;
22628;SDS011;11481;53.694;9.910;2023-07-02T03:13:59;9.95;;;3.80;;
22628;SDS011;11481;53.694;9.910;2023-07-02T03:16:26;8.27;;;4.22;;
22628;SDS011;11481;53.694;9.910;2023-07-02T03:18:52;9.75;;;3.88;;
22628;SDS011;11481;53.694;9.910;2023-07-02T03:21:19;8.20;;;3.40;;
22628;SDS011;11481;53.694;9.910;2023-07-02T03:23:46;8.98;;;3.80;;
22628;SDS011;11481;53.694;9.910;2023-07-02T03:26:12;6.30;;;3.33;;
22628;SDS011;11481;53.694;9.910;2023-07-02T03:28:39;11.98;;;3.28;;
22628;SDS011;11481;53.694;9.910;2023-07-02T03:31:06;6.43;;;3.33;;
22628;SDS011;11481;53.694;9.910;2023-07-02T03:33:32;10.95;;;3.70;;
22628;SDS011;11481;53.694;9.910;2023-07-02T03:35:59;5.18;;;3.10;;
22628;SDS011;11481;53.694;9.910;2023-07-02T03:38:26;9.57;;;3.53;;
22628;SDS011;11481;53.694;9.910;2023-07-02T03:40:52;9.02;;;3.20;;
22628;SDS011;11481;53.694;9.910;2023-07-02T03:43:19;10.10;;;3.60;;
22628;SDS011;11481;53.694;9.910;2023-07-02T03:45:46;14.18;;;4.28;;
22628;SDS011;11481;53.694;9.910;2023-07-02T03:48:12;12.75;;;3.45;;
22628;SDS011;11481;53.694;9.910;2023-07-02T03:50:41;10.80;;;3.95;;
22628;SDS011;11481;53.694;9.910;2023-07-02T03:53:08;8.10;;;3.80;;
22628;SDS011;11481;53.694;9.910;2023-07-02T03:55:34;6.10;;;3.30;;
22628;SDS011;11481;53.694;9.910;2023-07-02T03:58:01;10.70;;;3.60;;
22628;SDS011;11481;53.694;9.910;2023-07-02T04:00:28;13.27;;;4.40;;
22628;SDS011;11481;53.694;9.910;2023-07-02T04:02:54;9.25;;;3.83;;
22628;SDS011;11481;53.694;9.910;2023-07-02T04:05:21;7.88;;;3.90;;
22628;SDS011;11481;53.694;9.910;2023-07-02T04:07:49;9.95;;;3.88;;
22628;SDS011;11481;53.694;9.910;2023-07-02T04:10:16;9.82;;;3.45;;
22628;SDS011;11481;53.694;9.910;2023-07-02T04:12:42;9.45;;;4.82;;
22628;SDS011;11481;53.694;9.910;2023-07-02T04:15:10;13.13;;;3.63;;
22628;SDS011;11481;53.694;9.910;2023-07-02T04:17:37;11.82;;;3.78;;
22628;SDS011;11481;53.694;9.910;2023-07-02T04:20:04;13.57;;;4.00;;
22628;SDS011;11481;53.694;9.910;2023-07-02T04:22:32;10.00;;;3.20;;
22628;SDS011;11481;53.694;9.910;2023-07-02T04:24:59;11.95;;;3.80;;
22628;SDS011;11481;53.694;9.910;2023-07-02T04:27:39;8.05;;;3.60;;
22628;SDS011;11481;53.694;9.910;2023-07-02T04:30:16;12.85;;;3.78;;
22628;SDS011;11481;53.694;9.910;2023-07-02T04:32:43;14.48;;;4.00;;
22628;SDS011;11481;53.694;9.910;2023-07-02T04:35:10;14.27;;;4.40;;
22628;SDS011;11481;53.694;9.910;2023-07-02T04:37:39;9.88;;;3.53;;
22628;SDS011;11481;53.694;9.910;2023-07-02T04:40:06;12.05;;;4.10;;
22628;SDS011;11481;53.694;9.910;2023-07-02T04:42:40;13.13;;;3.88;;
22628;SDS011;11481;53.694;9.910;2023-07-02T04:45:13;11.23;;;3.45;;
22628;SDS011;11481;53.694;9.910;2023-07-02T04:47:43;11.55;;;3.90;;
22628;SDS011;11481;53.694;9.910;2023-07-02T04:50:11;10.15;;;3.78;;
22628;SDS011;11481;53.694;9.910;2023-07-02T04:52:38;16.05;;;4.38;;
22628;SDS011;11481;53.694;9.910;2023-07-02T04:55:05;14.02;;;4.35;;
22628;SDS011;11481;53.694;9.910;2023-07-02T04:57:32;18.65;;;4.00;;
22628;SDS011;11481;53.694;9.910;2023-07-02T04:59:59;20.30;;;4.20;;
22628;SDS011;11481;53.694;9.910;2023-07-02T05:02:25;13.57;;;4.53;;
22628;SDS011;11481;53.694;9.910;2023-07-02T05:04:52;13.00;;;3.80;;
22628;SDS011;11481;53.694;9.910;2023-07-02T05:07:19;13.70;;;4.78;;
22628;SDS011;11481;53.694;9.910;2023-07-02T05:09:45;12.38;;;3.65;;
22628;SDS011;11481;53.694;9.910;2023-07-02T05:12:14;11.57;;;3.90;;
22628;SDS011;11481;53.694;9.910;2023-07-02T05:14:41;12.02;;;4.20;;
22628;SDS011;11481;53.694;9.910;2023-07-02T05:17:08;12.70;;;4.00;;
22628;SDS011;11481;53.694;9.910;2023-07-02T05:19:34;11.32;;;3.97;;
22628;SDS011;11481;53.694;9.910;2023-07-02T05:22:01;12.82;;;4.35;;
22628;SDS011;11481;53.694;9.910;2023-07-02T05:24:28;17.77;;;4.88;;
22628;SDS011;11481;53.694;9.910;2023-07-02T05:26:54;14.10;;;4.80;;
22628;SDS011;11481;53.694;9.910;2023-07-02T05:29:21;14.57;;;3.63;;
22628;SDS011;11481;53.694;9.910;2023-07-02T05:31:48;17.00;;;5.05;;
22628;SDS011;11481;53.694;9.910;2023-07-02T05:34:14;23.23;;;5.05;;
22628;SDS011;11481;53.694;9.910;2023-07-02T05:36:41;12.90;;;4.45;;
22628;SDS011;11481;53.694;9.910;2023-07-02T05:39:08;20.83;;;5.03;;
22628;SDS011;11481;53.694;9.910;2023-07-02T05:41:35;18.70;;;4.70;;
22628;SDS011;11481;53.694;9.910;2023-07-02T05:44:01;18.50;;;5.03;;
22628;SDS011;11481;53.694;9.910;2023-07-02T05:46:28;18.45;;;4.68;;
22628;SDS011;11481;53.694;9.910;2023-07-02T05:48:55;18.20;;;4.10;;
22628;SDS011;11481;53.694;9.910;2023-07-02T05:51:23;18.75;;;5.55;;
22628;SDS011;11481;53.694;9.910;2023-07-02T05:53:50;18.00;;;5.03;;
22628;SDS011;11481;53.694;9.910;2023-07-02T05:56:18;16.88;;;4.80;;
22628;SDS011;11481;53.694;9.910;2023-07-02T05:58:45;15.40;;;4.72;;
22628;SDS011;11481;53.694;9.910;2023-07-02T06:01:14;21.65;;;4.95;;
22628;SDS011;11481;53.694;9.910;2023-07-02T06:03:40;13.98;;;4.65;;
22628;SDS011;11481;53.694;9.910;2023-07-02T06:06:09;12.05;;;4.95;;
22628;SDS011;11481;53.694;9.910;2023-07-02T06:08:37;15.18;;;4.80;;
22628;SDS011;11481;53.694;9.910;2023-07-02T06:11:03;15.02;;;4.30;;
22628;SDS011;11481;53.694;9.910;2023-07-02T06:13:31;21.23;;;5.28;;
22628;SDS011;11481;53.694;9.910;2023-07-02T06:15:57;18.52;;;6.13;;
22628;SDS011;11481;53.694;9.910;2023-07-02T06:18:24;16.77;;;5.68;;
22628;SDS011;11481;53.694;9.910;2023-07-02T06:20:51;13.00;;;4.50;;
22628;SDS011;11481;53.694;9.910;2023-07-02T06:23:18;17.65;;;5.45;;
22628;SDS011;11481;53.694;9.910;2023-07-02T06:25:44;13.23;;;4.45;;
22628;SDS011;11481;53.694;9.910;2023-07-02T06:28:11;14.85;;;5.03;;
22628;SDS011;11481;53.694;9.910;2023-07-02T06:30:40;15.55;;;4.43;;
22628;SDS011;11481;53.694;9.910;2023-07-02T06:33:06;18.52;;;4.53;;
22628;SDS011;11481;53.694;9.910;2023-07-02T06:35:36;16.50;;;5.38;;
22628;SDS011;11481;53.694;9.910;2023-07-02T06:38:02;19.00;;;4.88;;
22628;SDS011;11481;53.694;9.910;2023-07-02T06:40:30;12.38;;;4.60;;
22628;SDS011;11481;53.694;9.910;2023-07-02T06:42:57;19.00;;;4.40;;
22628;SDS011;11481;53.694;9.910;2023-07-02T06:45:23;11.05;;;4.53;;
22628;SDS011;11481;53.694;9.910;2023-07-02T06:47:52;15.80;;;5.32;;
22628;SDS011;11481;53.694;9.910;2023-07-02T06:50:19;17.02;;;4.90;;
22628;SDS011;11481;53.694;9.910;2023-07-02T06:52:46;17.67;;;5.05;;
22628;SDS011;11481;53.694;9.910;2023-07-02T06:55:13;16.90;;;4.28;;
22628;SDS011;11481;53.694;9.910;2023-07-02T06:57:43;16.77;;;4.57;;
22628;SDS011;11481;53.694;9.910;2023-07-02T07:00:13;14.45;;;4.28;;
22628;SDS011;11481;53.694;9.910;2023-07-02T07:02:40;13.38;;;4.75;;
22628;SDS011;11481;53.694;9.910;2023-07-02T07:05:07;15.27;;;4.25;;
22628;SDS011;11481;53.694;9.910;2023-07-02T07:07:35;13.15;;;4.75;;
22628;SDS011;11481;53.694;9.910;2023-07-02T07:10:02;14.98;;;4.13;;
22628;SDS011;11481;53.694;9.910;2023-07-02T07:12:30;13.68;;;4.88;;
22628;SDS011;11481;53.694;9.910;2023-07-02T07:14:56;12.00;;;4.22;;
22628;SDS011;11481;53.694;9.910;2023-07-02T07:17:23;17.83;;;5.15;;
22628;SDS011;11481;53.694;9.910;2023-07-02T07:19:50;15.70;;;5.43;;
22628;SDS011;11481;53.694;9.910;2023-07-02T07:22:16;16.23;;;5.15;;
22628;SDS011;11481;53.694;9.910;2023-07-02T07:24:43;16.73;;;4.97;;
22628;SDS011;11481;53.694;9.910;2023-07-02T07:27:10;16.70;;;5.18;;
22628;SDS011;11481;53.694;9.910;2023-07-02T07:29:36;18.83;;;5.22;;
22628;SDS011;11481;53.694;9.910;2023-07-02T07:32:03;16.00;;;5.35;;
22628;SDS011;11481;53.694;9.910;2023-07-02T07:34:30;15.52;;;5.07;;
22628;SDS011;11481;53.694;9.910;2023-07-02T07:36:57;19.92;;;5.65;;
22628;SDS011;11481;53.694;9.910;2023-07-02T07:39:23;13.93;;;4.47;;
22628;SDS011;11481;53.694;9.910;2023-07-02T07:41:50;21.38;;;5.53;;
22628;SDS011;11481;53.694;9.910;2023-07-02T07:44:17;16.27;;;4.90;;
22628;SDS011;11481;53.694;9.910;2023-07-02T07:46:46;16.83;;;4.65;;
22628;SDS011;11481;53.694;9.910;2023-07-02T07:49:13;12.70;;;4.57;;
22628;SDS011;11481;53.694;9.910;2023-07-02T07:51:40;15.48;;;5.07;;
22628;SDS011;11481;53.694;9.910;2023-07-02T07:54:06;15.05;;;4.85;;
22628;SDS011;11481;53.694;9.910;2023-07-02T07:56:33;14.60;;;4.65;;
22628;SDS011;11481;53.694;9.910;2023-07-02T07:58:59;21.05;;;5.55;;
22628;SDS011;11481;53.694;9.910;2023-07-02T08:01:26;14.15;;;5.55;;
22628;SDS011;11481;53.694;9.910;2023-07-02T08:03:54;12.30;;;4.85;;
22628;SDS011;11481;53.694;9.910;2023-07-02T08:06:21;18.23;;;4.18;;
22628;SDS011;11481;53.694;9.910;2023-07-02T08:08:48;15.60;;;5.55;;
22628;SDS011;11481;53.694;9.910;2023-07-02T08:11:16;12.80;;;4.10;;
22628;SDS011;11481;53.694;9.910;2023-07-02T08:13:43;19.10;;;5.00;;
22628;SDS011;11481;53.694;9.910;2023-07-02T08:16:10;13.75;;;4.55;;
22628;SDS011;11481;53.694;9.910;2023-07-02T08:18:37;16.33;;;5.18;;
22628;SDS011;11481;53.694;9.910;2023-07-02T08:21:04;14.93;;;4.57;;
22628;SDS011;11481;53.694;9.910;2023-07-02T08:23:32;9.13;;;4.32;;
22628;SDS011;11481;53.694;9.910;2023-07-02T08:25:59;15.13;;;4.78;;
22628;SDS011;11481;53.694;9.910;2023-07-02T08:28:26;12.70;;;4.85;;
22628;SDS011;11481;53.694;9.910;2023-07-02T08:30:52;17.23;;;5.18;;
22628;SDS011;11481;53.694;9.910;2023-07-02T08:33:19;17.50;;;5.10;;
22628;SDS011;11481;53.694;9.910;2023-07-02T08:35:46;9.65;;;4.45;;
22628;SDS011;11481;53.694;9.910;2023-07-02T08:38:14;14.57;;;4.95;;
22628;SDS011;11481;53.694;9.910;2023-07-02T08:40:41;12.93;;;4.13;;
22628;SDS011;11481;53.694;9.910;2023-07-02T08:43:08;14.57;;;4.72;;
22628;SDS011;11481;53.694;9.910;2023-07-02T08:45:35;22.17;;;5.00;;
22628;SDS011;11481;53.694;9.910;2023-07-02T08:48:02;14.05;;;4.65;;
22628;SDS011;11481;53.694;9.910;2023-07-02T08:50:29;19.27;;;5.15;;
22628;SDS011;11481;53.694;9.910;2023-07-02T08:52:56;19.00;;;5.05;;
22628;SDS011;11481;53.694;9.910;2023-07-02T08:55:23;14.73;;;5.10;;
22628;SDS011;11481;53.694;9.910;2023-07-02T08:57:51;20.67;;;5.50;;
22628;SDS011;11481;53.694;9.910;2023-07-02T09:00:20;21.88;;;5.20;;
22628;SDS011;11481;53.694;9.910;2023-07-02T09:02:49;13.63;;;5.25;;
22628;SDS011;11481;53.694;9.910;2023-07-02T09:05:16;10.63;;;4.00;;
22628;SDS011;11481;53.694;9.910;2023-07-02T09:07:47;11.98;;;4.15;;
22628;SDS011;11481;53.694;9.910;2023-07-02T09:10:26;17.70;;;3.83;;
22628;SDS011;11481;53.694;9.910;2023-07-02T09:13:06;15.25;;;3.88;;
22628;SDS011;11481;53.694;9.910;2023-07-02T09:15:37;13.32;;;3.53;;
22628;SDS011;11481;53.694;9.910;2023-07-02T09:18:18;8.85;;;3.42;;
22628;SDS011;11481;53.694;9.910;2023-07-02T09:20:46;12.07;;;2.90;;
22628;SDS011;11481;53.694;9.910;2023-07-02T09:23:16;8.95;;;3.53;;
22628;SDS011;11481;53.694;9.910;2023-07-02T09:25:43;12.43;;;3.67;;
22628;SDS011;11481;53.694;9.910;2023-07-02T09:28:17;10.07;;;3.08;;
22628;SDS011;11481;53.694;9.910;2023-07-02T09:33:25;8.95;;;3.17;;
22628;SDS011;11481;53.694;9.910;2023-07-02T09:35:54;9.73;;;2.97;;
22628;SDS011;11481;53.694;9.910;2023-07-02T09:38:21;11.63;;;3.45;;
22628;SDS011;11481;53.694;9.910;2023-07-02T09:40:52;14.50;;;3.58;;
22628;SDS011;11481;53.694;9.910;2023-07-02T09:43:20;12.50;;;4.05;;
22628;SDS011;11481;53.694;9.910;2023-07-02T09:45:48;10.93;;;3.53;;
22628;SDS011;11481;53.694;9.910;2023-07-02T09:48:17;13.75;;;4.13;;
22628;SDS011;11481;53.694;9.910;2023-07-02T09:50:45;9.70;;;3.45;;
22628;SDS011;11481;53.694;9.910;2023-07-02T09:53:15;11.60;;;3.58;;
22628;SDS011;11481;53.694;9.910;2023-07-02T09:55:42;12.65;;;3.40;;
22628;SDS011;11481;53.694;9.910;2023-07-02T09:58:10;10.65;;;3.40;;
22628;SDS011;11481;53.694;9.910;2023-07-02T10:00:41;11.57;;;3.10;;
22628;SDS011;11481;53.694;9.910;2023-07-02T10:03:08;10.65;;;3.33;;
22628;SDS011;11481;53.694;9.910;2023-07-02T10:05:35;13.50;;;3.28;;
22628;SDS011;11481;53.694;9.910;2023-07-02T10:08:12;11.98;;;3.30;;
22628;SDS011;11481;53.694;9.910;2023-07-02T10:10:40;7.38;;;2.13;;
22628;SDS011;11481;53.694;9.910;2023-07-02T10:13:06;9.85;;;2.33;;
22628;SDS011;11481;53.694;9.910;2023-07-02T10:15:33;10.88;;;2.67;;
22628;SDS011;11481;53.694;9.910;2023-07-02T10:18:03;8.27;;;2.70;;
22628;SDS011;11481;53.694;9.910;2023-07-02T10:20:33;5.45;;;2.30;;
22628;SDS011;11481;53.694;9.910;2023-07-02T10:23:07;4.85;;;2.30;;
22628;SDS011;11481;53.694;9.910;2023-07-02T10:25:36;11.18;;;2.45;;
22628;SDS011;11481;53.694;9.910;2023-07-02T10:28:18;8.63;;;3.03;;
22628;SDS011;11481;53.694;9.910;2023-07-02T10:30:48;6.75;;;2.17;;
22628;SDS011;11481;53.694;9.910;2023-07-02T10:33:16;7.93;;;2.50;;
22628;SDS011;11481;53.694;9.910;2023-07-02T10:35:45;12.98;;;2.53;;
22628;SDS011;11481;53.694;9.910;2023-07-02T10:38:17;10.77;;;2.53;;
22628;SDS011;11481;53.694;9.910;2023-07-02T10:40:58;6.93;;;2.10;;
22628;SDS011;11481;53.694;9.910;2023-07-02T10:43:29;7.20;;;2.03;;
22628;SDS011;11481;53.694;9.910;2023-07-02T10:45:58;8.65;;;1.70;;
22628;SDS011;11481;53.694;9.910;2023-07-02T10:48:29;5.82;;;2.10;;
22628;SDS011;11481;53.694;9.910;2023-07-02T10:50:56;7.90;;;2.20;;
22628;SDS011;11481;53.694;9.910;2023-07-02T10:53:23;7.97;;;2.15;;
22628;SDS011;11481;53.694;9.910;2023-07-02T10:55:53;8.43;;;1.90;;
22628;SDS011;11481;53.694;9.910;2023-07-02T10:58:22;8.25;;;2.17;;
22628;SDS011;11481;53.694;9.910;2023-07-02T11:00:50;8.77;;;2.00;;
22628;SDS011;11481;53.694;9.910;2023-07-02T11:05:48;8.32;;;2.38;;
22628;SDS011;11481;53.694;9.910;2023-07-02T11:08:16;8.00;;;1.63;;
22628;SDS011;11481;53.694;9.910;2023-07-02T11:10:44;8.52;;;2.22;;
22628;SDS011;11481;53.694;9.910;2023-07-02T11:13:17;7.20;;;2.80;;
22628;SDS011;11481;53.694;9.910;2023-07-02T11:15:45;4.10;;;1.60;;
22628;SDS011;11481;53.694;9.910;2023-07-02T11:18:17;8.65;;;2.22;;
22628;SDS011;11481;53.694;9.910;2023-07-02T11:20:47;12.05;;;2.25;;
22628;SDS011;11481;53.694;9.910;2023-07-02T11:23:20;9.10;;;2.15;;
22628;SDS011;11481;53.694;9.910;2023-07-02T11:25:55;8.23;;;2.00;;
22628;SDS011;11481;53.694;9.910;2023-07-02T11:28:25;9.05;;;2.20;;
22628;SDS011;11481;53.694;9.910;2023-07-02T11:30:54;4.82;;;1.80;;
22628;SDS011;11481;53.694;9.910;2023-07-02T11:33:34;6.13;;;2.05;;
22628;SDS011;11481;53.694;9.910;2023-07-02T11:36:07;3.47;;;1.73;;
22628;SDS011;11481;53.694;9.910;2023-07-02T11:38:46;8.38;;;2.28;;
22628;SDS011;11481;53.694;9.910;2023-07-02T11:41:13;6.20;;;1.83;;
22628;SDS011;11481;53.694;9.910;2023-07-02T11:43:40;9.18;;;2.47;;
22628;SDS011;11481;53.694;9.910;2023-07-02T11:46:09;9.88;;;2.30;;
22628;SDS011;11481;53.694;9.910;2023-07-02T11:48:36;11.23;;;2.25;;
22628;SDS011;11481;53.694;9.910;2023-07-02T11:51:03;6.03;;;2.05;;
22628;SDS011;11481;53.694;9.910;2023-07-02T11:53:30;7.80;;;2.10;;
22628;SDS011;11481;53.694;9.910;2023-07-02T11:55:56;8.35;;;2.20;;
22628;SDS011;11481;53.694;9.910;2023-07-02T11:58:23;6.20;;;1.80;;
22628;SDS011;11481;53.694;9.910;2023-07-02T12:00:49;7.00;;;1.95;;
22628;SDS011;11481;53.694;9.910;2023-07-02T12:03:17;11.93;;;2.20;;
22628;SDS011;11481;53.694;9.910;2023-07-02T12:05:44;6.60;;;2.53;;
22628;SDS011;11481;53.694;9.910;2023-07-02T12:08:11;10.45;;;2.45;;
22628;SDS011;11481;53.694;9.910;2023-07-02T12:10:38;9.98;;;2.40;;
22628;SDS011;11481;53.694;9.910;2023-07-02T12:13:06;10.65;;;2.72;;
22628;SDS011;11481;53.694;9.910;2023-07-02T12:15:33;11.23;;;2.50;;
22628;SDS011;11481;53.694;9.910;2023-07-02T12:18:00;7.82;;;2.38;;
22628;SDS011;11481;53.694;9.910;2023-07-02T12:20:27;6.43;;;2.10;;
22628;SDS011;11481;53.694;9.910;2023-07-02T12:22:53;8.73;;;2.13;;
22628;SDS011;11481;53.694;9.910;2023-07-02T12:25:26;6.13;;;1.95;;
22628;SDS011;11481;53.694;9.910;2023-07-02T12:27:55;7.72;;;2.03;;
22628;SDS011;11481;53.694;9.910;2023-07-02T12:30:22;8.60;;;1.92;;
22628;SDS011;11481;53.694;9.910;2023-07-02T12:32:49;10.40;;;2.30;;
22628;SDS011;11481;53.694;9.910;2023-07-02T12:35:15;7.20;;;2.00;;
22628;SDS011;11481;53.694;9.910;2023-07-02T12:37:46;6.00;;;1.80;;
22628;SDS011;11481;53.694;9.910;2023-07-02T12:40:16;5.63;;;2.33;;
22628;SDS011;11481;53.694;9.910;2023-07-02T12:42:44;3.33;;;1.85;;
22628;SDS011;11481;53.694;9.910;2023-07-02T12:45:12;8.80;;;2.28;;
22628;SDS011;11481;53.694;9.910;2023-07-02T12:47:47;5.78;;;1.90;;
22628;SDS011;11481;53.694;9.910;2023-07-02T12:50:14;7.75;;;2.00;;
22628;SDS011;11481;53.694;9.910;2023-07-02T12:52:40;4.68;;;1.50;;
22628;SDS011;11481;53.694;9.910;2023-07-02T12:55:07;6.50;;;1.80;;
22628;SDS011;11481;53.694;9.910;2023-07-02T12:57:34;4.60;;;1.70;;
22628;SDS011;11481;53.694;9.910;2023-07-02T13:00:01;7.47;;;1.60;;
22628;SDS011;11481;53.694;9.910;2023-07-02T13:02:31;8.38;;;2.03;;
22628;SDS011;11481;53.694;9.910;2023-07-02T13:04:58;8.13;;;1.88;;
22628;SDS011;11481;53.694;9.910;2023-07-02T13:07:25;7.70;;;1.67;;
22628;SDS011;11481;53.694;9.910;2023-07-02T13:09:52;5.13;;;1.65;;
22628;SDS011;11481;53.694;9.910;2023-07-02T13:12:19;5.18;;;1.17;;
22628;SDS011;11481;53.694;9.910;2023-07-02T13:14:46;6.10;;;1.42;;
22628;SDS011;11481;53.694;9.910;2023-07-02T13:17:13;3.33;;;1.45;;
22628;SDS011;11481;53.694;9.910;2023-07-02T13:19:39;5.22;;;1.30;;
22628;SDS011;11481;53.694;9.910;2023-07-02T13:22:06;4.57;;;1.45;;
22628;SDS011;11481;53.694;9.910;2023-07-02T13:24:33;5.45;;;1.30;;
22628;SDS011;11481;53.694;9.910;2023-07-02T13:27:11;4.28;;;1.20;;
22628;SDS011;11481;53.694;9.910;2023-07-02T13:29:41;4.40;;;1.10;;
22628;SDS011;11481;53.694;9.910;2023-07-02T13:32:08;6.05;;;1.48;;
22628;SDS011;11481;53.694;9.910;2023-07-02T13:34:35;4.10;;;1.10;;
22628;SDS011;11481;53.694;9.910;2023-07-02T13:37:02;6.38;;;1.15;;
22628;SDS011;11481;53.694;9.910;2023-07-02T13:39:33;4.45;;;1.50;;
22628;SDS011;11481;53.694;9.910;2023-07-02T13:42:00;5.03;;;1.60;;
22628;SDS011;11481;53.694;9.910;2023-07-02T13:44:28;4.60;;;1.23;;
22628;SDS011;11481;53.694;9.910;2023-07-02T13:46:55;9.45;;;1.88;;
22628;SDS011;11481;53.694;9.910;2023-07-02T13:49:21;4.72;;;1.77;;
22628;SDS011;11481;53.694;9.910;2023-07-02T13:51:48;7.72;;;1.40;;
22628;SDS011;11481;53.694;9.910;2023-07-02T13:54:16;5.00;;;1.20;;
22628;SDS011;11481;53.694;9.910;2023-07-02T13:56:45;5.57;;;1.55;;
22628;SDS011;11481;53.694;9.910;2023-07-02T13:59:16;3.80;;;1.42;;
22628;SDS011;11481;53.694;9.910;2023-07-02T14:01:43;7.90;;;1.50;;
22628;SDS011;11481;53.694;9.910;2023-07-02T14:04:10;13.30;;;1.73;;
22628;SDS011;11481;53.694;9.910;2023-07-02T14:06:38;5.70;;;1.63;;
22628;SDS011;11481;53.694;9.910;2023-07-02T14:09:05;5.88;;;1.40;;
22628;SDS011;11481;53.694;9.910;2023-07-02T14:11:33;9.85;;;1.50;;
22628;SDS011;11481;53.694;9.910;2023-07-02T14:14:01;4.18;;;1.52;;
22628;SDS011;11481;53.694;9.910;2023-07-02T14:16:29;8.00;;;1.50;;
22628;SDS011;11481;53.694;9.910;2023-07-02T14:18:56;5.03;;;1.50;;
22628;SDS011;11481;53.694;9.910;2023-07-02T14:21:24;7.13;;;1.63;;
22628;SDS011;11481;53.694;9.910;2023-07-02T14:23:51;8.25;;;1.40;;
22628;SDS011;11481;53.694;9.910;2023-07-02T14:26:20;5.05;;;1.38;;
22628;SDS011;11481;53.694;9.910;2023-07-02T14:28:47;5.60;;;1.27;;
22628;SDS011;11481;53.694;9.910;2023-07-02T14:31:16;4.40;;;1.40;;
22628;SDS011;11481;53.694;9.910;2023-07-02T14:33:43;7.00;;;2.00;;
22628;SDS011;11481;53.694;9.910;2023-07-02T14:36:10;12.18;;;1.35;;
22628;SDS011;11481;53.694;9.910;2023-07-02T14:38:37;8.45;;;1.55;;
22628;SDS011;11481;53.694;9.910;2023-07-02T14:41:05;4.28;;;1.00;;
22628;SDS011;11481;53.694;9.910;2023-07-02T14:43:31;4.85;;;1.67;;
22628;SDS011;11481;53.694;9.910;2023-07-02T14:46:01;3.97;;;1.45;;
22628;SDS011;11481;53.694;9.910;2023-07-02T14:48:29;8.60;;;1.63;;
22628;SDS011;11481;53.694;9.910;2023-07-02T14:50:57;6.82;;;1.88;;